Time;durP1;ratioP1;P1;durP2;ratioP2;P2;SDS_P1;SDS_P2;PMS_P1;PMS_P2;Temp;Humidity;BMP_temperature;BMP_pressure;BME280_temperature;BME280_humidity;BME280_pressure;Samples;Min_cycle;Max_cycle;Signal;HPM_P1;HPM_P2
2022/05/10 00:00:48;;;;;;;9.25;3.20;;;23.50;44.30;;;;;;5071143;28;20039;-85
2022/05/10 00:03:14;;;;;;;7.07;3.40;;;23.50;44.40;;;;;;5070244;28;20037;-79
2022/05/10 00:05:42;;;;;;;6.03;3.00;;;23.50;44.30;;;;;;5071279;28;20025;-79
2022/05/10 00:08:10;;;;;;;10.50;3.05;;;23.50;44.40;;;;;;5070835;28;20750;-79
2022/05/10 00:10:36;;;;;;;9.43;3.20;;;23.50;44.40;;;;;;5069351;28;20024;-80
2022/05/10 00:13:03;;;;;;;7.40;3.28;;;23.60;44.60;;;;;;5069832;28;20029;-80
2022/05/10 00:15:29;;;;;;;7.22;3.08;;;23.60;44.60;;;;;;5070695;28;20374;-80
2022/05/10 00:17:54;;;;;;;6.80;3.00;;;23.50;44.40;;;;;;5070509;28;20033;-79
2022/05/10 00:20:23;;;;;;;9.13;3.63;;;23.60;44.40;;;;;;5070653;28;20028;-80
2022/05/10 00:22:49;;;;;;;5.57;2.90;;;23.50;44.30;;;;;;5070086;28;20028;-80
2022/05/10 00:25:19;;;;;;;6.28;3.17;;;23.60;44.80;;;;;;5069237;28;20533;-80
2022/05/10 00:27:44;;;;;;;8.95;2.92;;;23.60;44.50;;;;;;5070529;28;20058;-81
2022/05/10 00:30:11;;;;;;;6.22;3.00;;;23.60;44.60;;;;;;5069228;28;20025;-81
2022/05/10 00:32:37;;;;;;;5.63;3.00;;;23.60;44.80;;;;;;5068492;28;20028;-82
2022/05/10 00:35:06;;;;;;;6.72;3.33;;;23.50;45.00;;;;;;5065723;28;20028;-75
2022/05/10 00:37:33;;;;;;;;;;;23.50;44.80;;;;;;5070664;28;20097;-75
2022/05/10 00:39:59;;;;;;;63.75;39.95;;;23.50;42.50;;;;;;5068665;28;19909;-75
2022/05/10 00:42:36;;;;;;;46.70;30.30;;;23.30;40.00;;;;;;5068456;28;20158;-76
2022/05/10 00:45:05;;;;;;;38.55;21.35;;;23.20;38.90;;;;;;5067285;28;20108;-75
2022/05/10 00:47:40;;;;;;;33.60;18.52;;;23.10;38.20;;;;;;5069049;28;20047;-80
2022/05/10 00:50:18;;;;;;;24.17;10.77;;;23.00;37.70;;;;;;5069100;28;20036;-85
2022/05/10 00:53:02;;;;;;;23.42;12.13;;;23.10;38.80;;;;;;5069866;28;20051;-85
2022/05/10 00:55:44;;;;;;;20.35;11.27;;;23.10;39.30;;;;;;5069447;28;20021;-79
2022/05/10 00:58:27;;;;;;;23.38;11.88;;;23.20;39.90;;;;;;5070174;28;20569;-82
2022/05/10 01:00:55;;;;;;;21.40;13.18;;;23.20;40.10;;;;;;5069558;28;20111;-80
2022/05/10 01:03:31;;;;;;;23.05;12.80;;;23.30;40.90;;;;;;5069230;28;20032;-79
2022/05/10 01:06:11;;;;;;;25.27;12.52;;;23.30;40.60;;;;;;5067617;28;20041;-81
2022/05/10 01:08:43;;;;;;;;;;;23.40;41.00;;;;;;5071226;28;20032;-81
2022/05/10 01:11:25;;;;;;;26.00;11.63;;;23.40;41.00;;;;;;5071183;28;20327;-84
2022/05/10 01:14:01;;;;;;;20.63;10.85;;;23.40;41.10;;;;;;5071139;28;20056;-82
2022/05/10 01:16:27;;;;;;;24.33;11.32;;;23.40;41.10;;;;;;5071132;28;20103;-82
2022/05/10 01:18:55;;;;;;;22.02;12.02;;;23.40;41.20;;;;;;5071441;28;20059;-82
2022/05/10 01:21:52;;;;;;;23.50;11.30;;;23.40;41.40;;;;;;5071478;28;20441;-82
2022/05/10 01:24:46;;;;;;;18.42;10.77;;;23.50;41.50;;;;;;5071008;28;20024;-82
2022/05/10 01:27:35;;;;;;;21.15;11.07;;;23.40;41.60;;;;;;5071433;28;20028;-83
2022/05/10 01:30:11;;;;;;;18.70;10.27;;;23.50;41.70;;;;;;5070159;28;20484;-82
2022/05/10 01:36:33;;;;;;;19.35;11.25;;;23.50;41.80;;;;;;5071693;28;20036;-81
2022/05/10 01:39:05;;;;;;;20.20;10.95;;;23.50;42.00;;;;;;5052308;28;20389;-81
2022/05/10 01:41:43;;;;;;;18.85;10.95;;;23.40;42.10;;;;;;5070086;28;20032;-82
2022/05/10 01:44:29;;;;;;;23.13;11.40;;;23.50;42.10;;;;;;5069715;28;20050;-81
2022/05/10 01:47:06;;;;;;;17.83;9.63;;;23.40;42.10;;;;;;5070194;28;20477;-81
2022/05/10 01:49:41;;;;;;;17.65;10.25;;;23.40;42.20;;;;;;5070160;28;20439;-82
2022/05/10 01:52:22;;;;;;;18.67;10.68;;;23.50;42.30;;;;;;5071252;28;20082;-81
2022/05/10 01:55:28;;;;;;;16.90;10.02;;;23.40;42.30;;;;;;5069965;28;20115;-81
2022/05/10 01:57:58;;;;;;;21.73;10.63;;;23.50;42.40;;;;;;5071331;28;20024;-81
2022/05/10 02:00:27;;;;;;;20.55;9.77;;;23.50;42.50;;;;;;5071063;28;20535;-80
2022/05/10 02:03:03;;;;;;;19.70;9.88;;;23.50;42.50;;;;;;5071945;28;20131;-80
2022/05/10 02:05:52;;;;;;;19.20;9.80;;;23.50;42.60;;;;;;5037114;28;20074;-80
2022/05/10 02:08:29;;;;;;;18.13;9.88;;;23.40;42.60;;;;;;5073745;28;20451;-80
2022/05/10 02:11:00;;;;;;;21.95;10.18;;;23.50;42.70;;;;;;5074859;28;20068;-80
2022/05/10 02:13:33;;;;;;;20.13;10.63;;;23.40;42.70;;;;;;5072941;28;20131;-81
2022/05/10 02:16:17;;;;;;;17.95;9.88;;;23.50;42.80;;;;;;5074761;28;20473;-80
2022/05/10 02:18:47;;;;;;;18.70;10.15;;;23.50;42.80;;;;;;5073455;28;20503;-81
2022/05/10 02:21:24;;;;;;;17.58;9.55;;;23.50;42.90;;;;;;5074455;28;20064;-81
2022/05/10 02:24:12;;;;;;;16.92;9.73;;;23.50;43.00;;;;;;5074248;28;20082;-81
2022/05/10 02:26:44;;;;;;;17.65;9.27;;;23.50;43.10;;;;;;5074651;28;20039;-82
2022/05/10 02:29:25;;;;;;;17.33;9.52;;;23.50;43.10;;;;;;5074621;28;20021;-82
2022/05/10 02:35:03;;;;;;;18.17;9.27;;;23.50;43.30;;;;;;5072936;28;20035;-81
2022/05/10 02:37:28;;;;;;;19.93;8.63;;;23.50;43.30;;;;;;5074164;28;20028;-82
2022/05/10 02:39:54;;;;;;;18.05;9.00;;;23.50;43.30;;;;;;5074343;28;20032;-81
2022/05/10 02:42:22;;;;;;;16.25;8.52;;;23.50;43.40;;;;;;5074149;28;20028;-82
2022/05/10 02:44:50;;;;;;;17.25;8.48;;;23.50;43.50;;;;;;5073729;28;20074;-80
2022/05/10 02:47:29;;;;;;;16.88;9.52;;;23.50;43.50;;;;;;5074020;28;20029;-81
2022/05/10 02:49:55;;;;;;;16.20;9.10;;;23.50;43.40;;;;;;5074152;28;20109;-81
2022/05/10 02:52:20;;;;;;;17.88;9.02;;;23.50;43.60;;;;;;5072810;28;20277;-82
2022/05/10 02:54:46;;;;;;;15.38;8.45;;;23.50;43.60;;;;;;5072911;28;20024;-81
2022/05/10 02:57:12;;;;;;;17.63;8.63;;;23.50;43.60;;;;;;5074296;28;20052;-81
2022/05/10 02:59:39;;;;;;;14.55;7.85;;;23.50;43.80;;;;;;5073043;28;20033;-81
2022/05/10 03:02:18;;;;;;;15.48;7.95;;;23.50;44.60;;;;;;5074022;28;20039;-81
2022/05/10 03:04:56;;;;;;;16.65;8.73;;;23.50;43.80;;;;;;5073688;28;20410;-81
2022/05/10 03:07:23;;;;;;;17.65;8.50;;;23.50;44.40;;;;;;5073823;28;20551;-81
2022/05/10 03:09:48;;;;;;;15.40;8.50;;;23.50;44.30;;;;;;5073864;28;20078;-81
2022/05/10 03:12:14;;;;;;;15.98;8.45;;;23.50;44.30;;;;;;5073307;28;20036;-81
2022/05/10 03:14:40;;;;;;;14.25;8.32;;;23.50;44.70;;;;;;5055420;28;20021;-81
2022/05/10 03:17:08;;;;;;;15.18;8.88;;;23.40;44.10;;;;;;5072129;28;20557;-80
2022/05/10 03:19:34;;;;;;;14.68;8.32;;;23.50;44.40;;;;;;5054887;28;20311;-80
2022/05/10 03:22:00;;;;;;;14.77;7.97;;;23.50;44.00;;;;;;5073289;28;20040;-81
2022/05/10 03:24:25;;;;;;;15.18;8.13;;;23.50;44.70;;;;;;5073011;28;20035;-80
2022/05/10 03:26:53;;;;;;;16.83;8.00;;;23.50;44.40;;;;;;5073351;28;20032;-80
2022/05/10 03:29:19;;;;;;;14.57;7.90;;;23.50;44.30;;;;;;5055581;28;20033;-81
2022/05/10 03:31:45;;;;;;;15.68;8.02;;;23.50;44.10;;;;;;5072921;22;20048;-75
2022/05/10 03:36:58;;;;;;;18.65;10.57;;;23.50;44.20;;;;;;5059368;28;20063;-77
2022/05/10 03:39:24;;;;;;;17.92;10.20;;;23.50;44.30;;;;;;5052908;28;20911;-75
2022/05/10 03:41:49;;;;;;;20.42;10.65;;;23.50;44.40;;;;;;5048322;28;20036;-75
2022/05/10 03:44:15;;;;;;;16.92;9.25;;;23.50;44.40;;;;;;5031204;28;20159;-75
2022/05/10 03:46:43;;;;;;;16.55;9.57;;;23.50;44.40;;;;;;5031709;28;20033;-75
2022/05/10 03:49:08;;;;;;;15.35;9.43;;;23.50;44.50;;;;;;5033031;28;20102;-75
2022/05/10 03:51:34;;;;;;;17.33;9.48;;;23.50;44.50;;;;;;5015134;28;20125;-75
2022/05/10 03:54:00;;;;;;;18.25;10.52;;;23.50;44.60;;;;;;5031320;28;20037;-75
2022/05/10 03:56:26;;;;;;;15.05;9.32;;;23.50;44.60;;;;;;5032623;28;20470;-75
2022/05/10 03:58:52;;;;;;;13.93;9.07;;;23.50;45.30;;;;;;5031626;28;20033;-75
2022/05/10 04:01:19;;;;;;;18.63;9.82;;;23.50;44.70;;;;;;5032626;28;20029;-75
2022/05/10 04:03:44;;;;;;;16.95;9.20;;;23.50;44.70;;;;;;5014678;28;20033;-75
2022/05/10 04:06:11;;;;;;;16.33;9.13;;;23.50;44.70;;;;;;5031171;28;20044;-76
2022/05/10 04:08:37;;;;;;;14.82;9.18;;;23.50;44.80;;;;;;5032583;28;20025;-76
2022/05/10 04:11:04;;;;;;;16.55;8.90;;;23.50;44.80;;;;;;5031141;28;20109;-75
2022/05/10 04:13:31;;;;;;;16.20;8.88;;;23.50;44.90;;;;;;5031897;28;20116;-75
2022/05/10 04:15:58;;;;;;;16.45;8.77;;;23.50;44.80;;;;;;5032685;28;20028;-75
2022/05/10 04:18:25;;;;;;;14.43;8.65;;;23.50;44.90;;;;;;5032242;28;20025;-75
2022/05/10 04:20:50;;;;;;;15.75;8.70;;;23.50;44.80;;;;;;5032065;28;20028;-75
2022/05/10 04:23:16;;;;;;;15.45;9.05;;;23.50;44.90;;;;;;5031884;28;20030;-75
2022/05/10 04:25:42;;;;;;;15.23;8.73;;;23.50;44.80;;;;;;5032196;28;20067;-75
2022/05/10 04:28:08;;;;;;;17.63;9.00;;;23.50;44.80;;;;;;5032330;28;20056;-75
2022/05/10 04:30:34;;;;;;;16.63;8.73;;;23.50;44.90;;;;;;5032040;28;20371;-75
2022/05/10 04:32:59;;;;;;;15.52;8.95;;;23.50;45.00;;;;;;5031416;28;20033;-75
2022/05/10 04:35:25;;;;;;;17.73;8.77;;;23.50;45.00;;;;;;5031872;28;20078;-75
2022/05/10 04:37:51;;;;;;;16.75;9.15;;;23.50;45.10;;;;;;5031887;28;20478;-76
2022/05/10 04:43:01;;;;;;;14.43;8.32;;;23.50;45.20;;;;;;5031309;28;20053;-76
2022/05/10 04:45:27;;;;;;;15.68;8.68;;;23.50;45.10;;;;;;5031787;28;20053;-76
2022/05/10 04:47:53;;;;;;;15.50;9.18;;;23.50;45.10;;;;;;5031649;28;20033;-76
2022/05/10 04:50:19;;;;;;;15.18;8.32;;;23.50;45.20;;;;;;5030481;28;20086;-77
2022/05/10 04:52:44;;;;;;;16.80;9.20;;;23.50;45.20;;;;;;5030090;28;20030;-77
2022/05/10 04:55:10;;;;;;;14.60;8.35;;;23.50;45.30;;;;;;5031780;28;20025;-77
2022/05/10 04:57:38;;;;;;;15.85;8.68;;;23.50;45.30;;;;;;5031590;28;20367;-77
2022/05/10 05:00:08;;;;;;;13.82;7.72;;;23.50;45.40;;;;;;5031591;28;20036;-77
2022/05/10 05:02:35;;;;;;;15.15;7.90;;;23.50;45.30;;;;;;5030228;28;20390;-77
2022/05/10 05:05:01;;;;;;;16.70;8.50;;;23.50;45.40;;;;;;5031463;28;20036;-77
2022/05/10 05:07:26;;;;;;;13.48;7.90;;;23.50;45.40;;;;;;5031425;28;20030;-78
2022/05/10 05:09:52;;;;;;;13.05;7.88;;;23.50;45.50;;;;;;5030317;28;20076;-78
2022/05/10 05:12:18;;;;;;;15.13;8.15;;;23.50;45.60;;;;;;5031173;28;20036;-77
2022/05/10 05:14:43;;;;;;;11.98;7.47;;;23.50;45.60;;;;;;5031323;28;20053;-78
2022/05/10 05:17:09;;;;;;;14.60;7.70;;;23.50;45.60;;;;;;5029660;28;20029;-78
2022/05/10 05:19:34;;;;;;;14.07;8.18;;;23.50;45.60;;;;;;5030167;28;20029;-78
2022/05/10 05:22:00;;;;;;;14.05;7.68;;;23.50;45.60;;;;;;5030292;28;20138;-78
2022/05/10 05:24:26;;;;;;;12.55;7.57;;;23.50;45.60;;;;;;5030982;28;20364;-78
2022/05/10 05:26:53;;;;;;;15.40;8.52;;;23.50;45.70;;;;;;5013549;28;20025;-78
2022/05/10 05:29:18;;;;;;;13.65;7.35;;;23.60;45.70;;;;;;5013357;28;20557;-77
2022/05/10 05:31:45;;;;;;;15.00;8.00;;;23.50;45.70;;;;;;5030772;28;20125;-78
2022/05/10 05:34:11;;;;;;;13.55;7.55;;;23.50;45.70;;;;;;5031570;28;20026;-78
2022/05/10 05:36:37;;;;;;;14.25;7.72;;;23.60;45.70;;;;;;5030052;28;20393;-78
2022/05/10 05:39:03;;;;;;;15.27;7.63;;;23.60;45.80;;;;;;5029920;28;20076;-78
2022/05/10 05:41:28;;;;;;;15.00;8.25;;;23.60;45.90;;;;;;5031517;28;20029;-78
2022/05/10 05:43:54;;;;;;;13.13;7.70;;;23.60;45.70;;;;;;5034884;28;20033;-78
2022/05/10 05:46:19;;;;;;;14.05;7.80;;;23.60;45.90;;;;;;5034183;28;20029;-78
2022/05/10 05:48:46;;;;;;;16.05;7.72;;;23.60;45.80;;;;;;5035091;28;20022;-78
2022/05/10 05:51:12;;;;;;;15.18;7.40;;;23.60;45.80;;;;;;5033884;28;20029;-79
2022/05/10 05:53:38;;;;;;;12.80;7.30;;;23.60;45.90;;;;;;5033655;28;20057;-79
2022/05/10 05:56:08;;;;;;;12.25;7.28;;;23.60;45.80;;;;;;5017539;28;20056;-78
2022/05/10 05:58:35;;;;;;;14.13;7.65;;;23.60;45.80;;;;;;5035097;28;20064;-78
2022/05/10 06:01:02;;;;;;;13.70;7.53;;;23.60;45.90;;;;;;5033673;28;20061;-78
2022/05/10 06:03:27;;;;;;;12.68;7.45;;;23.60;45.90;;;;;;5016610;28;20069;-78
2022/05/10 06:05:53;;;;;;;13.63;7.55;;;23.60;45.90;;;;;;5034819;28;20069;-78
2022/05/10 06:08:19;;;;;;;13.90;8.25;;;23.60;45.90;;;;;;5017094;28;20465;-78
2022/05/10 06:10:50;;;;;;;14.20;7.63;;;23.60;45.90;;;;;;5035278;28;20037;-78
2022/05/10 06:13:22;;;;;;;13.48;7.30;;;23.60;46.00;;;;;;5034301;28;20025;-78
2022/05/10 06:15:49;;;;;;;11.52;7.05;;;23.60;45.90;;;;;;5034455;28;20025;-78
2022/05/10 06:18:15;;;;;;;12.75;7.30;;;23.60;45.90;;;;;;5034581;28;20021;-78
2022/05/10 06:20:41;;;;;;;12.98;7.00;;;23.70;46.10;;;;;;5034400;28;20066;-77
2022/05/10 06:23:09;;;;;;;13.55;7.85;;;23.60;46.00;;;;;;5034018;28;20029;-78
2022/05/10 06:25:36;;;;;;;12.80;7.65;;;23.60;46.00;;;;;;5033155;28;20048;-78
2022/05/10 06:28:03;;;;;;;12.38;7.22;;;23.60;46.00;;;;;;5034239;28;20108;-78
2022/05/10 06:30:29;;;;;;;11.95;7.15;;;23.60;46.10;;;;;;5033186;28;20095;-78
2022/05/10 06:32:57;;;;;;;13.55;7.72;;;23.70;46.20;;;;;;5033757;28;20390;-78
2022/05/10 06:35:22;;;;;;;13.15;7.07;;;23.60;46.10;;;;;;5034523;28;20029;-78
2022/05/10 06:40:33;;;;;;;13.93;7.72;;;23.70;46.20;;;;;;5034149;28;20101;-77
2022/05/10 06:43:01;;;;;;;13.68;7.50;;;23.70;46.20;;;;;;5016140;28;20537;-78
2022/05/10 06:45:28;;;;;;;11.20;6.43;;;23.70;46.20;;;;;;5032817;28;20025;-78
2022/05/10 06:47:54;;;;;;;12.95;7.60;;;23.60;46.20;;;;;;5033078;28;20033;-78
2022/05/10 06:50:22;;;;;;;11.65;6.75;;;23.70;46.20;;;;;;5032610;28;20037;-77
2022/05/10 06:52:54;;;;;;;14.75;8.02;;;23.60;46.20;;;;;;5031466;28;20033;-78
2022/05/10 06:55:20;;;;;;;13.45;7.60;;;23.60;46.20;;;;;;5032466;28;20026;-77
2022/05/10 06:57:45;;;;;;;12.65;7.15;;;23.70;46.30;;;;;;5032728;28;20026;-77
2022/05/10 07:00:13;;;;;;;15.68;7.70;;;23.60;46.30;;;;;;5033917;28;20355;-78
2022/05/10 07:02:39;;;;;;;12.77;7.07;;;23.60;46.30;;;;;;5016029;28;20498;-78
2022/05/10 07:05:07;;;;;;;12.32;6.43;;;23.60;46.50;;;;;;5032552;28;20029;-78
2022/05/10 07:07:33;;;;;;;14.68;7.30;;;23.60;46.50;;;;;;5032339;28;20436;-76
2022/05/10 07:09:59;;;;;;;14.75;7.10;;;23.70;46.50;;;;;;5033895;28;20409;-77
2022/05/10 07:12:25;;;;;;;13.88;6.80;;;23.70;46.50;;;;;;5033326;28;20017;-77
2022/05/10 07:14:50;;;;;;;11.93;7.43;;;23.70;46.70;;;;;;5033289;28;20503;-77
2022/05/10 07:17:16;;;;;;;12.93;7.00;;;23.70;47.00;;;;;;5032542;28;20025;-77
2022/05/10 07:19:42;;;;;;;13.45;7.32;;;23.70;47.10;;;;;;5032056;28;20104;-77
2022/05/10 07:22:08;;;;;;;12.70;6.78;;;23.70;47.70;;;;;;5032168;28;20029;-77
2022/05/10 07:24:34;;;;;;;11.07;6.22;;;23.70;47.50;;;;;;5032863;28;20041;-77
2022/05/10 07:26:59;;;;;;;12.90;6.70;;;23.70;47.40;;;;;;5032310;28;20033;-77
2022/05/10 07:29:25;;;;;;;11.07;6.40;;;23.70;47.30;;;;;;5033322;28;20029;-77
2022/05/10 07:31:53;;;;;;;12.20;6.88;;;23.70;47.60;;;;;;5033116;28;20340;-77
2022/05/10 07:34:18;;;;;;;11.95;6.97;;;23.70;47.20;;;;;;5031780;28;20036;-76
2022/05/10 07:36:44;;;;;;;12.25;7.07;;;23.70;47.30;;;;;;5033016;28;20021;-76
2022/05/10 07:39:14;;;;;;;12.38;6.95;;;23.80;47.40;;;;;;5033292;28;20029;-77
2022/05/10 07:41:40;;;;;;;11.93;7.15;;;23.70;47.60;;;;;;5015305;28;20041;-76
2022/05/10 07:44:07;;;;;;;13.60;6.70;;;23.80;47.50;;;;;;5031402;28;20025;-76
2022/05/10 07:46:33;;;;;;;12.38;7.30;;;23.80;47.20;;;;;;5032979;28;20041;-77
2022/05/10 07:48:59;;;;;;;13.02;7.05;;;23.80;47.40;;;;;;5015620;28;20095;-77
2022/05/10 07:51:25;;;;;;;12.43;6.80;;;23.70;47.90;;;;;;5031432;28;20680;-77
2022/05/10 07:53:51;;;;;;;14.73;7.13;;;23.80;47.50;;;;;;5031175;28;20029;-77
2022/05/10 07:56:17;;;;;;;11.52;6.45;;;23.80;47.50;;;;;;5048261;28;20033;-77
2022/05/10 07:58:43;;;;;;;13.98;7.13;;;23.70;47.60;;;;;;5031692;28;20032;-76
2022/05/10 08:01:09;;;;;;;11.55;6.75;;;23.80;48.20;;;;;;5031309;28;20112;-76
2022/05/10 08:03:35;;;;;;;24.38;8.52;;;23.80;47.90;;;;;;5031117;28;20033;-76
2022/05/10 08:06:01;;;;;;;17.08;8.32;;;23.80;48.20;;;;;;5032052;28;20088;-75
2022/05/10 08:08:29;;;;;;;15.23;8.35;;;23.90;49.30;;;;;;5032511;28;20029;-75
2022/05/10 08:10:56;;;;;;;17.88;7.95;;;23.90;49.80;;;;;;5032398;28;20040;-72
2022/05/10 08:13:27;;;;;;;19.90;8.05;;;23.90;49.00;;;;;;5032036;28;20401;-75
2022/05/10 08:15:54;;;;;;;16.27;8.43;;;23.90;48.50;;;;;;5032375;28;20021;-75
2022/05/10 08:18:21;;;;;;;20.70;8.30;;;24.00;49.80;;;;;;5032217;28;20474;-75
2022/05/10 08:20:47;;;;;;;17.38;7.07;;;23.90;50.40;;;;;;5030851;28;20029;-75
2022/05/10 08:23:21;;;;;;;13.52;5.93;;;23.80;47.00;;;;;;5030816;28;20482;-75
2022/05/10 08:25:48;;;;;;;20.95;7.40;;;23.90;45.10;;;;;;5032115;28;20041;-76
2022/05/10 08:28:14;;;;;;;18.25;9.27;;;23.90;47.00;;;;;;5031851;28;20426;-75
2022/05/10 08:30:41;;;;;;;20.35;9.43;;;23.90;45.70;;;;;;5042272;28;20110;-75
2022/05/10 08:33:10;;;;;;;25.00;10.80;;;23.90;46.60;;;;;;5037622;28;20044;-76
2022/05/10 08:35:37;;;;;;;18.08;8.63;;;23.90;45.70;;;;;;5037734;28;20079;-75
2022/05/10 08:38:04;;;;;;;15.93;8.65;;;23.90;45.70;;;;;;5031736;28;20369;-76
2022/05/10 08:40:52;;;;;;;19.25;8.52;;;23.90;45.30;;;;;;5031116;28;20017;-76
2022/05/10 08:43:26;;;;;;;17.52;7.68;;;23.90;45.40;;;;;;5022101;28;20044;-76
2022/05/10 08:45:53;;;;;;;16.35;7.00;;;23.90;45.20;;;;;;5030188;28;20072;-76
2022/05/10 08:48:19;;;;;;;20.58;6.68;;;23.90;45.10;;;;;;5031886;28;20041;-76
2022/05/10 08:50:47;;;;;;;16.05;6.25;;;23.90;44.50;;;;;;5031527;28;20044;-76
2022/05/10 08:53:16;;;;;;;11.65;5.47;;;23.90;44.40;;;;;;5030123;28;20112;-76
2022/05/10 08:55:47;;;;;;;10.48;4.30;;;23.90;43.90;;;;;;5031638;28;20029;-76
2022/05/10 08:58:30;;;;;;;13.18;4.90;;;23.90;43.60;;;;;;5047485;28;20037;-76
2022/05/10 09:01:00;;;;;;;13.68;4.80;;;23.90;44.30;;;;;;5049989;28;20436;-76
2022/05/10 09:03:41;;;;;;;14.98;5.20;;;23.90;43.70;;;;;;5051068;28;20029;-76
2022/05/10 09:06:35;;;;;;;14.38;5.03;;;23.90;43.70;;;;;;5047711;28;20397;-76
2022/05/10 09:09:20;;;;;;;11.10;4.70;;;23.90;43.80;;;;;;5050336;28;20064;-76
2022/05/10 09:11:53;;;;;;;11.90;4.50;;;23.90;43.80;;;;;;5066635;28;20047;-76
2022/05/10 09:14:29;;;;;;;12.88;4.78;;;23.90;44.10;;;;;;5029338;28;20092;-76
2022/05/10 09:16:55;;;;;;;12.48;5.00;;;23.90;44.30;;;;;;5029144;28;21187;-75
2022/05/10 09:19:31;;;;;;;12.43;4.35;;;23.90;44.30;;;;;;5030214;28;20036;-75
2022/05/10 09:21:57;;;;;;;11.18;4.25;;;23.90;44.30;;;;;;5030050;28;20033;-75
2022/05/10 09:24:46;;;;;;;14.32;4.93;;;23.90;44.20;;;;;;5031018;28;20030;-75
2022/05/10 09:27:13;;;;;;;9.73;4.22;;;23.90;44.10;;;;;;5031104;28;20026;-76
2022/05/10 09:29:49;;;;;;;10.02;4.07;;;23.90;44.20;;;;;;5031276;28;20413;-76
2022/05/10 09:35:28;;;;;;;13.20;4.28;;;24.00;44.40;;;;;;5031373;28;20136;-75
2022/05/10 09:38:08;;;;;;;8.80;3.58;;;24.00;44.50;;;;;;5031047;28;20025;-75
2022/05/10 09:40:40;;;;;;;14.00;3.70;;;24.00;44.50;;;;;;5029867;28;20367;-76
2022/05/10 09:43:15;;;;;;;9.90;3.80;;;24.00;44.40;;;;;;5030856;28;20474;-76
2022/05/10 09:45:41;;;;;;;10.00;3.45;;;24.00;44.30;;;;;;5031086;28;20471;-77
2022/05/10 09:48:18;;;;;;;8.20;3.90;;;24.00;44.30;;;;;;5029721;28;20402;-77
2022/05/10 09:50:46;;;;;;;8.75;3.67;;;24.00;44.20;;;;;;5013524;28;20029;-77
2022/05/10 09:53:23;;;;;;;9.10;4.03;;;24.00;43.30;;;;;;5030526;28;20045;-77
2022/05/10 09:56:10;;;;;;;11.63;3.67;;;24.00;43.40;;;;;;5013274;28;20045;-77
2022/05/10 09:58:43;;;;;;;10.23;4.20;;;24.00;43.00;;;;;;5029894;28;20304;-76
2022/05/10 10:01:11;;;;;;;10.77;4.13;;;24.00;42.50;;;;;;5030760;28;20033;-77
2022/05/10 10:03:40;;;;;;;9.30;4.13;;;24.00;43.20;;;;;;5030826;28;20120;-77
2022/05/10 10:06:25;;;;;;;8.23;4.10;;;24.10;42.70;;;;;;5030824;28;20096;-77
2022/05/10 10:08:55;;;;;;;9.45;4.10;;;24.00;43.20;;;;;;5030593;28;20029;-75
2022/05/10 10:11:21;;;;;;;8.00;3.60;;;24.00;43.80;;;;;;5029880;28;20135;-76
2022/05/10 10:13:52;;;;;;;9.90;3.75;;;24.00;44.10;;;;;;5030345;28;20034;-76
2022/05/10 10:16:28;;;;;;;8.05;3.50;;;24.00;43.80;;;;;;5030566;28;20026;-76
2022/05/10 10:19:15;;;;;;;10.45;4.00;;;24.00;42.10;;;;;;5030775;28;20025;-77
2022/05/10 10:21:53;;;;;;;13.60;4.57;;;24.00;42.80;;;;;;5023061;28;20044;-76
2022/05/10 10:24:32;;;;;;;22.25;9.75;;;24.10;43.50;;;;;;5030423;28;20026;-77
2022/05/10 10:27:05;;;;;;;19.02;5.78;;;24.00;43.00;;;;;;5029941;28;20454;-77
2022/05/10 10:29:52;;;;;;;11.05;5.15;;;24.00;44.50;;;;;;5034551;28;20056;-77
2022/05/10 10:32:20;;;;;;;11.82;5.97;;;24.10;44.60;;;;;;5034135;28;20037;-78
2022/05/10 10:34:52;;;;;;;14.38;6.40;;;24.00;44.00;;;;;;5034148;28;20029;-78
2022/05/10 10:37:28;;;;;;;14.48;6.30;;;24.10;43.70;;;;;;5032966;28;20048;-73
2022/05/10 10:40:30;;;;;;;16.05;6.18;;;24.10;42.50;;;;;;5034207;28;20044;-73
2022/05/10 10:43:22;;;;;;;14.80;5.90;;;24.10;42.30;;;;;;5033678;28;20034;-71
2022/05/10 10:46:21;;;;;;;15.68;5.32;;;24.10;42.50;;;;;;5034637;28;20033;-72
2022/05/10 10:49:29;;;;;;;16.92;5.50;;;24.10;43.20;;;;;;5034034;28;20088;-72
2022/05/10 10:51:57;;;;;;;14.38;5.65;;;24.00;43.70;;;;;;5037933;28;20041;-72
2022/05/10 10:54:27;;;;;;;14.35;5.85;;;24.00;43.70;;;;;;5053498;28;20033;-75
2022/05/10 10:57:02;;;;;;;15.23;5.70;;;24.00;44.50;;;;;;5053539;28;20211;-77
2022/05/10 10:59:52;;;;;;;14.40;5.50;;;24.10;44.70;;;;;;5053713;28;20131;-76
2022/05/10 11:02:33;;;;;;;17.90;5.82;;;24.00;44.70;;;;;;5052526;28;20545;-76
2022/05/10 11:05:29;;;;;;;19.38;5.65;;;24.00;45.10;;;;;;5053460;28;20519;-76
2022/05/10 11:08:04;;;;;;;13.80;5.80;;;24.00;45.20;;;;;;5053835;28;20060;-76
2022/05/10 11:10:44;;;;;;;12.95;5.60;;;24.00;45.30;;;;;;5053909;28;20408;-76
2022/05/10 11:13:28;;;;;;;20.10;5.72;;;24.00;45.40;;;;;;5053070;28;20040;-76
2022/05/10 11:16:12;;;;;;;14.15;5.10;;;24.00;45.30;;;;;;5053512;28;20075;-76
2022/05/10 11:19:12;;;;;;;14.68;5.75;;;24.00;45.20;;;;;;5052084;28;20452;-75
2022/05/10 11:21:49;;;;;;;12.05;5.13;;;24.00;45.20;;;;;;5053060;28;20036;-75
2022/05/10 11:24:22;;;;;;;10.93;4.95;;;24.00;45.00;;;;;;5052924;28;20098;-75
2022/05/10 11:27:16;;;;;;;11.52;4.97;;;24.00;45.00;;;;;;5053199;28;20025;-75
2022/05/10 11:30:00;;;;;;;9.48;4.85;;;24.00;45.00;;;;;;5035513;28;20106;-75
2022/05/10 11:32:59;;;;;;;19.33;4.97;;;24.00;45.00;;;;;;5053071;28;20033;-76
2022/05/10 11:35:46;;;;;;;11.35;5.25;;;24.00;45.00;;;;;;5053453;28;20116;-76
2022/05/10 11:38:19;;;;;;;10.38;5.05;;;24.00;45.10;;;;;;5052994;28;20388;-76
2022/05/10 11:41:12;;;;;;;10.63;5.07;;;24.00;45.00;;;;;;5052017;28;20037;-75
2022/05/10 11:44:09;;;;;;;12.30;5.03;;;24.00;45.00;;;;;;5052128;28;20401;-75
2022/05/10 11:47:04;;;;;;;10.45;4.72;;;24.00;45.00;;;;;;5052606;28;20044;-76
2022/05/10 11:50:06;;;;;;;15.95;5.40;;;24.00;46.30;;;;;;5052941;28;20060;-76
2022/05/10 11:52:44;;;;;;;13.65;5.30;;;24.00;46.30;;;;;;5053598;28;20067;-75
2022/05/10 11:55:21;;;;;;;16.10;5.35;;;24.00;46.80;;;;;;5058770;28;20029;-74
2022/05/10 11:57:47;;;;;;;15.98;5.10;;;24.00;46.70;;;;;;5051605;28;20025;-76
2022/05/10 12:00:31;;;;;;;18.45;6.05;;;24.10;46.60;;;;;;5051816;28;20021;-76
2022/05/10 12:03:11;;;;;;;15.13;5.40;;;24.10;47.10;;;;;;5052500;28;20130;-75
2022/05/10 12:05:39;;;;;;;12.05;5.50;;;24.10;48.20;;;;;;5052504;28;20025;-75
2022/05/10 12:08:19;;;;;;;16.85;5.63;;;24.10;46.10;;;;;;5053974;28;20107;-77
2022/05/10 12:10:46;;;;;;;13.50;5.53;;;24.10;47.40;;;;;;5055381;28;20032;-76
2022/05/10 12:21:19;;;;;;;17.13;5.45;;;24.10;49.00;;;;;;5046769;28;20086;-75
2022/05/10 12:22:07;;;;;;;13.00;5.05;;;24.20;48.70;;;;;;5052360;28;20053;-76
2022/05/10 12:24:36;;;;;;;11.48;5.32;;;24.20;48.50;;;;;;5052315;28;20024;-75
2022/05/10 12:27:11;;;;;;;11.20;5.05;;;24.20;48.30;;;;;;5052383;28;20036;-76
2022/05/10 12:29:39;;;;;;;13.57;5.70;;;24.20;48.60;;;;;;5051071;28;20033;-75
2022/05/10 12:32:06;;;;;;;13.18;4.97;;;24.20;48.60;;;;;;5052147;28;20031;-75
2022/05/10 12:34:42;;;;;;;12.25;5.10;;;24.20;48.60;;;;;;5051709;28;20025;-76
2022/05/10 12:37:25;;;;;;;15.88;5.75;;;24.10;48.60;;;;;;5051471;28;20107;-76
2022/05/10 12:39:57;;;;;;;17.60;6.03;;;24.10;48.80;;;;;;5052336;28;20029;-76
2022/05/10 12:42:47;;;;;;;14.98;6.03;;;24.10;48.50;;;;;;5052065;28;20424;-76
2022/05/10 12:45:32;;;;;;;;;;;24.10;48.60;;;;;;5051785;28;20124;-77
2022/05/10 12:48:28;;;;;;;13.50;4.95;;;24.10;48.40;;;;;;5051917;28;19908;-77
2022/05/10 12:51:07;;;;;;;13.52;5.28;;;24.10;48.40;;;;;;5045495;28;20033;-72
2022/05/10 12:53:54;;;;;;;11.73;5.28;;;24.10;48.50;;;;;;5051001;28;20048;-71
2022/05/10 12:56:30;;;;;;;18.83;7.85;;;24.10;48.60;;;;;;5051526;28;20686;-72
2022/05/10 12:59:03;;;;;;;15.02;7.50;;;24.10;47.10;;;;;;5051847;28;20055;-71
2022/05/10 13:01:35;;;;;;;15.00;5.85;;;24.10;46.50;;;;;;5051489;28;20120;-72
2022/05/10 13:04:13;;;;;;;14.65;6.47;;;24.10;46.40;;;;;;5049668;28;20060;-71
2022/05/10 13:06:46;;;;;;;11.93;5.28;;;24.20;46.50;;;;;;5050112;28;20021;-71
2022/05/10 13:09:23;;;;;;;12.10;5.70;;;24.10;46.00;;;;;;5051524;28;20051;-72
2022/05/10 13:12:19;;;;;;;12.27;5.65;;;24.20;45.50;;;;;;5051007;28;20493;-72
2022/05/10 13:14:47;;;;;;;13.40;5.75;;;24.20;46.80;;;;;;5048994;28;20075;-72
2022/05/10 13:17:40;;;;;;;13.02;5.28;;;24.20;47.80;;;;;;5050101;28;20043;-72
2022/05/10 13:20:09;;;;;;;9.50;4.90;;;24.20;48.20;;;;;;5039397;28;20064;-71
2022/05/10 13:22:35;;;;;;;13.05;4.82;;;24.20;47.80;;;;;;5051092;28;20116;-72
2022/05/10 13:25:04;;;;;;;17.73;5.10;;;24.20;46.70;;;;;;5050823;28;20113;-72
2022/05/10 13:27:32;;;;;;;;;;;24.20;47.20;;;;;;5051620;28;20091;-72